createdAt,value
2018-08-31T00:01:34.394Z,11.87
2018-08-31T00:07:29.436Z,10.62
2018-08-31T00:13:24.376Z,14.05
2018-08-31T00:19:19.367Z,8.77
2018-08-31T00:25:14.372Z,12.87
2018-08-31T00:31:09.436Z,11.41
2018-08-31T00:37:04.408Z,15.18
2018-08-31T00:42:59.396Z,14.96
2018-08-31T00:48:54.398Z,15.11
2018-08-31T00:54:49.449Z,14.35
2018-08-31T01:00:44.417Z,13.59
2018-08-31T01:06:39.409Z,12.2
2018-08-31T01:12:34.425Z,14.35
2018-08-31T01:18:29.428Z,12.81
2018-08-31T01:24:24.426Z,11.28
2018-08-31T01:30:19.480Z,10.34
2018-08-31T01:36:14.449Z,9.93
2018-08-31T01:42:09.457Z,15.63
2018-08-31T01:48:04.441Z,12.78
2018-08-31T01:53:59.455Z,14.66
2018-08-31T01:59:54.462Z,13.97
2018-08-31T02:05:49.491Z,11.63
2018-08-31T02:11:44.476Z,13.33
2018-08-31T02:17:39.532Z,12.26
2018-08-31T02:23:34.536Z,11.52
2018-08-31T02:29:29.473Z,11.66
2018-08-31T02:35:24.487Z,12.43
2018-08-31T02:41:19.486Z,8.44
2018-08-31T02:47:14.506Z,9.27
2018-08-31T02:53:09.496Z,10.41
2018-08-31T02:59:04.493Z,12.78
2018-08-31T03:04:59.504Z,12.98
2018-08-31T03:10:54.530Z,11.8
2018-08-31T03:16:49.512Z,12.3
2018-08-31T03:22:44.510Z,13.21
2018-08-31T03:28:39.525Z,13.46
2018-08-31T03:34:34.542Z,9.43
2018-08-31T03:40:29.586Z,13.73
2018-08-31T03:46:24.573Z,12.96
2018-08-31T03:52:19.552Z,13.67
2018-08-31T03:58:14.540Z,11.8
2018-08-31T04:04:09.630Z,12.93
2018-08-31T04:10:04.547Z,9.47
2018-08-31T04:15:59.566Z,11.51
2018-08-31T04:21:54.565Z,13.85
2018-08-31T04:27:49.598Z,15.94
2018-08-31T04:33:44.590Z,15.3
2018-08-31T04:39:39.578Z,17.98
2018-08-31T04:45:34.587Z,16.41
2018-08-31T04:51:29.570Z,17.03
2018-08-31T04:57:24.587Z,18.63
2018-08-31T05:03:19.607Z,17.9
2018-08-31T05:09:14.596Z,16.41
2018-08-31T05:15:09.598Z,15.82
2018-08-31T05:21:04.619Z,13.64
2018-08-31T05:26:59.614Z,16.54
2018-08-31T05:32:54.609Z,14.41
2018-08-31T05:38:49.602Z,13.7
2018-08-31T05:44:44.632Z,16.46
2018-08-31T05:50:39.619Z,18.25
2018-08-31T05:56:34.633Z,19.07
2018-08-31T06:02:29.641Z,13.8
2018-08-31T06:08:24.649Z,12.81
2018-08-31T06:14:19.668Z,25.7
2018-08-31T06:20:14.677Z,16.26
2018-08-31T06:26:09.655Z,12.19
2018-08-31T06:32:04.655Z,15.61
2018-08-31T06:37:59.719Z,13.91
2018-08-31T06:43:54.668Z,14.39
2018-08-31T06:49:49.683Z,18.86
2018-08-31T06:55:44.687Z,18.24
2018-08-31T07:01:39.691Z,16.3
2018-08-31T07:07:34.708Z,30.9
2018-08-31T07:13:29.691Z,15.51
2018-08-31T07:19:24.756Z,19.37
2018-08-31T07:25:19.720Z,16.73
2018-08-31T07:31:14.761Z,14.91
2018-08-31T07:37:09.734Z,13.29
2018-08-31T07:43:04.705Z,21.58
2018-08-31T07:48:59.720Z,19.02
2018-08-31T07:54:54.739Z,16.78
2018-08-31T08:00:49.734Z,19.34
2018-08-31T08:06:44.734Z,18.44
2018-08-31T08:12:39.736Z,12.82
2018-08-31T08:18:34.803Z,11.94
2018-08-31T08:24:29.756Z,15.99
2018-08-31T08:30:24.774Z,12.53
2018-08-31T08:36:19.760Z,12.23
2018-08-31T08:42:14.873Z,14.27
2018-08-31T08:48:09.813Z,11.09
2018-08-31T08:54:04.828Z,11.54
2018-08-31T08:59:59.775Z,12.37
2018-08-31T09:05:54.820Z,8
2018-08-31T09:11:49.827Z,9.25
2018-08-31T09:17:44.793Z,10.58
2018-08-31T09:23:39.800Z,11.37
2018-08-31T09:29:34.815Z,11.97
2018-08-31T09:35:29.831Z,8.08
2018-08-31T09:41:24.826Z,10.84
2018-08-31T09:47:19.815Z,8.82
2018-08-31T09:53:14.863Z,10.79
2018-08-31T09:59:09.812Z,12.44
2018-08-31T10:05:04.820Z,11.08
2018-08-31T10:10:59.833Z,14.19
2018-08-31T10:16:54.837Z,10.25
2018-08-31T10:22:49.889Z,8.41
2018-08-31T10:28:44.865Z,8.04
2018-08-31T10:34:39.866Z,12.84
2018-08-31T10:40:34.887Z,9.27
2018-08-31T10:46:29.885Z,9.02
2018-08-31T10:52:24.877Z,9.67
2018-08-31T10:58:19.922Z,7.49
2018-08-31T11:04:14.927Z,11.97
2018-08-31T11:10:09.890Z,8.6
2018-08-31T11:16:04.895Z,8.77
2018-08-31T11:21:59.889Z,7.86
2018-08-31T11:27:55.023Z,12.58
2018-08-31T11:33:49.909Z,7.11
2018-08-31T11:39:44.927Z,8.86
2018-08-31T11:45:39.949Z,7.04
2018-08-31T11:51:34.937Z,8.5
2018-08-31T11:57:29.965Z,11.79
2018-08-31T12:03:24.928Z,7.73
2018-08-31T12:09:19.972Z,8.44
2018-08-31T12:15:14.959Z,8.23
2018-08-31T12:21:10.007Z,8.2
2018-08-31T12:27:04.969Z,9.54
2018-08-31T12:32:59.967Z,10.08
2018-08-31T12:38:54.971Z,11.61
2018-08-31T12:44:49.968Z,6.93
2018-08-31T12:50:45.011Z,1.8
2018-08-31T12:56:39.967Z,1.86
2018-08-31T13:02:35.026Z,2.23
2018-08-31T13:08:29.990Z,4
2018-08-31T13:14:24.995Z,7.19
2018-08-31T13:20:20.015Z,5.23
2018-08-31T13:26:15.011Z,4.21
2018-08-31T13:32:10.033Z,5.13
2018-08-31T13:38:05.198Z,4.21
2018-08-31T13:44:00.047Z,5.64
2018-08-31T13:49:55.020Z,4.64
2018-08-31T13:55:50.039Z,4.52
2018-08-31T14:01:45.025Z,4.95
2018-08-31T14:07:40.042Z,4.17
2018-08-31T14:13:35.038Z,7.74
2018-08-31T14:19:30.038Z,4.33
2018-08-31T14:25:25.037Z,5.84
2018-08-31T14:31:20.061Z,4.5
2018-08-31T14:37:15.070Z,7.43
2018-08-31T14:43:10.075Z,7.56
2018-08-31T14:49:05.061Z,9.84
2018-08-31T14:55:00.074Z,11.07
2018-08-31T15:00:55.089Z,10.11
2018-08-31T15:06:50.093Z,13.17
2018-08-31T15:12:45.120Z,13.34
2018-08-31T15:18:40.092Z,11.31
2018-08-31T15:24:35.109Z,10.3
2018-08-31T15:30:30.153Z,12.16
2018-08-31T15:36:25.102Z,18.46
2018-08-31T15:42:20.244Z,11.54
2018-08-31T15:48:15.193Z,14.61
2018-08-31T15:54:10.126Z,19.17
2018-08-31T16:00:05.190Z,26.4
2018-08-31T16:06:00.125Z,19.75
2018-08-31T16:11:55.303Z,16.94
2018-08-31T16:17:50.179Z,18.23
2018-08-31T16:23:45.148Z,14.91
2018-08-31T16:29:40.158Z,18.35
2018-08-31T16:35:35.169Z,16.76
2018-08-31T16:41:30.141Z,19.54
2018-08-31T16:47:25.270Z,18.02
2018-08-31T16:53:20.170Z,24.45
2018-08-31T16:59:15.179Z,24.1
2018-08-31T17:05:10.213Z,19.17
2018-08-31T17:11:05.205Z,21.39
2018-08-31T17:17:00.294Z,25.69
2018-08-31T17:22:55.244Z,20.47
2018-08-31T17:28:50.182Z,25.29
2018-08-31T17:34:45.219Z,21.88
2018-08-31T17:40:40.214Z,21.8
2018-08-31T17:46:35.198Z,16.6
2018-08-31T17:52:30.232Z,25.16
2018-08-31T17:58:25.226Z,21.81
2018-08-31T18:04:20.234Z,17.31
2018-08-31T18:10:15.264Z,19.53
2018-08-31T18:16:10.321Z,20.8
2018-08-31T18:22:05.236Z,17.23
2018-08-31T18:28:00.265Z,20.86
2018-08-31T18:33:55.261Z,16.85
2018-08-31T18:39:50.314Z,23.32
2018-08-31T18:45:45.284Z,19.95
2018-08-31T18:51:40.289Z,20.32
2018-08-31T18:57:35.298Z,26.89
2018-08-31T19:03:30.293Z,16.54
2018-08-31T19:09:25.278Z,20.56
2018-08-31T19:15:20.301Z,18.6
2018-08-31T19:21:15.307Z,17.16
2018-08-31T19:27:10.294Z,16.34
2018-08-31T19:33:05.287Z,19.06
2018-08-31T19:39:00.321Z,18.26
2018-08-31T19:44:55.327Z,14.15
2018-08-31T19:50:50.332Z,17.2
2018-08-31T19:56:45.317Z,20.32
2018-08-31T20:02:40.312Z,21.03
2018-08-31T20:08:35.314Z,20.63
2018-08-31T20:14:30.352Z,18.73
2018-08-31T20:20:25.350Z,16.85
2018-08-31T20:26:20.361Z,16.88
2018-08-31T20:32:15.334Z,18.18
2018-08-31T20:38:10.376Z,20.35
2018-08-31T20:44:05.335Z,22.96
2018-08-31T20:50:00.355Z,30.16
2018-08-31T20:55:55.392Z,21.8
2018-08-31T21:01:50.374Z,23.7
2018-08-31T21:07:45.388Z,22.77
2018-08-31T21:13:40.393Z,20.72
2018-08-31T21:19:35.374Z,24.51
2018-08-31T21:25:30.420Z,26.4
2018-08-31T21:31:25.432Z,29.42
2018-08-31T21:37:20.398Z,20.69
2018-08-31T21:43:15.392Z,21.17
2018-08-31T21:49:10.455Z,20.56
2018-08-31T21:55:05.425Z,28.48
2018-08-31T22:01:00.431Z,24.15
2018-08-31T22:06:55.430Z,23.8
2018-08-31T22:12:50.430Z,23.17
2018-08-31T22:18:45.488Z,24.17
2018-08-31T22:24:40.433Z,35.1
2018-08-31T22:30:35.439Z,28.7
2018-08-31T22:36:30.443Z,21.29
2018-08-31T22:42:25.429Z,21.88
2018-08-31T22:48:20.462Z,21.5
2018-08-31T22:54:15.464Z,27.9
2018-08-31T23:00:10.644Z,22.19
2018-08-31T23:06:05.444Z,21.88
2018-08-31T23:12:00.480Z,24.02
2018-08-31T23:17:55.478Z,26.79
2018-08-31T23:23:50.487Z,24.19
2018-08-31T23:29:45.468Z,23.1
2018-08-31T23:35:40.519Z,24.47
2018-08-31T23:41:35.499Z,32.65
2018-08-31T23:47:30.509Z,17.1
2018-08-31T23:53:25.499Z,21.63
2018-08-31T23:59:20.567Z,23.45
